Time;durP1;ratioP1;P1;durP2;ratioP2;P2;SDS_P1;SDS_P2;PMS_P1;PMS_P2;Temp;Humidity;BMP_temperature;BMP_pressure;BME280_temperature;BME280_humidity;BME280_pressure;Samples;Min_cycle;Max_cycle;Signal;HPM_P1;HPM_P2
2023/12/26 00:00:31;;;;;;;;;;;;;;;21.69;25.63;97732.78;5017609;28;1095;-74
2023/12/26 00:02:57;;;;;;;;;;;;;;;21.74;25.38;97735.06;5005488;28;1977;-75
2023/12/26 00:05:23;;;;;;;;;;;;;;;21.93;25.14;97736.09;5025610;28;1103;-75
2023/12/26 00:07:49;;;;;;;;;;;;;;;21.81;25.26;97741.31;5058378;28;782;-75
2023/12/26 00:10:15;;;;;;;;;;;;;;;21.59;25.57;97749.66;5041929;28;837;-75
2023/12/26 00:12:42;;;;;;;;;;;;;;;21.71;25.34;97748.09;5059715;28;738;-75
2023/12/26 00:15:08;;;;;;;;;;;;;;;21.59;25.50;97751.69;5041589;28;728;-75
2023/12/26 00:17:33;;;;;;;;;;;;;;;21.56;25.37;97735.63;5058338;28;786;-76
2023/12/26 00:19:59;;;;;;;;;;;;;;;21.97;24.91;97760.22;5059668;28;849;-75
2023/12/26 00:22:25;;;;;;;;;;;;;;;21.91;24.90;97759.19;5041730;28;810;-75
2023/12/26 00:24:52;;;;;;;;;;;;;;;21.90;25.10;97765.31;5059290;28;846;-75
2023/12/26 00:27:18;;;;;;;;;;;;;;;21.89;25.07;97769.41;5041444;28;744;-75
2023/12/26 00:29:43;;;;;;;;;;;;;;;21.87;25.28;97777.56;5036954;28;1063;-75
2023/12/26 00:32:09;;;;;;;;;;;;;;;21.56;25.76;97769.59;5003944;28;1404;-75
2023/12/26 00:34:35;;;;;;;;;;;;;;;21.28;26.09;97777.63;5004065;28;1194;-75
2023/12/26 00:37:00;;;;;;;;;;;;;;;21.60;25.46;97778.75;5036842;28;712;-75
2023/12/26 00:39:26;;;;;;;;;;;;;;;21.71;25.51;97782.09;5020381;28;1194;-75
2023/12/26 00:41:51;;;;;;;;;;;;;;;21.85;25.16;97787.28;5020148;28;984;-75
2023/12/26 00:44:17;;;;;;;;;;;;;;;21.99;24.88;97793.78;5020240;28;1966;-75
2023/12/26 00:46:46;;;;;;;;;;;;;;;22.04;24.94;97799.66;5019701;28;1111;-75
2023/12/26 00:49:12;;;;;;;;;;;;;;;21.78;25.33;97821.50;5004076;28;1042;-75
2023/12/26 00:51:37;;;;;;;;;;;;;;;21.64;25.69;97827.59;5003889;28;899;-75
2023/12/26 00:54:03;;;;;;;;;;;;;;;21.70;25.33;97834.28;5003836;28;1199;-75
2023/12/26 00:56:29;;;;;;;;;;;;;;;21.74;25.45;97837.81;5019860;28;1137;-75
2023/12/26 00:58:54;;;;;;;;;;;;;;;21.87;25.31;97835.00;5003636;28;1196;-75
2023/12/26 01:01:20;;;;;;;;;;;;;;;21.96;25.32;97843.63;5018176;28;1322;-75
2023/12/26 01:03:46;;;;;;;;;;;;;;;22.01;25.27;97856.44;5056426;28;1913;-75
2023/12/26 01:06:14;;;;;;;;;;;;;;;21.85;25.34;97849.59;5056086;28;795;-75
2023/12/26 01:08:39;;;;;;;;;;;;;;;21.33;25.91;97856.38;5056428;28;894;-75
2023/12/26 01:11:05;;;;;;;;;;;;;;;21.24;26.15;97856.19;5023040;28;1074;-75
2023/12/26 01:13:34;;;;;;;;;;;;;;;21.53;25.76;97855.41;5056119;28;943;-75
2023/12/26 01:16:02;;;;;;;;;;;;;;;21.80;25.27;97855.81;5039341;28;859;-75
2023/12/26 01:18:31;;;;;;;;;;;;;;;21.85;25.43;97860.13;5040512;28;1124;-75
2023/12/26 01:20:57;;;;;;;;;;;;;;;21.70;25.40;97854.09;5040478;28;1168;-75
2023/12/26 01:23:23;;;;;;;;;;;;;;;21.82;25.26;97861.84;5052503;28;1910;-74
2023/12/26 01:25:48;;;;;;;;;;;;;;;21.85;25.02;97860.94;5052677;28;1125;-74
2023/12/26 01:28:15;;;;;;;;;;;;;;;21.52;25.60;97882.16;5019179;28;1366;-75
2023/12/26 01:30:40;;;;;;;;;;;;;;;21.44;25.58;97886.41;5052487;28;1207;-75
2023/12/26 01:33:06;;;;;;;;;;;;;;;21.30;26.07;97885.56;5036243;28;943;-75
2023/12/26 01:35:32;;;;;;;;;;;;;;;21.67;25.67;97889.00;5052379;28;1163;-75
2023/12/26 01:37:58;;;;;;;;;;;;;;;22.05;25.21;97882.63;5035578;28;738;-75
2023/12/26 01:40:23;;;;;;;;;;;;;;;22.02;25.29;97880.69;5052421;28;1109;-75
2023/12/26 01:42:49;;;;;;;;;;;;;;;21.68;25.58;97872.78;5035641;28;1907;-75
2023/12/26 01:45:15;;;;;;;;;;;;;;;21.95;25.03;97866.72;5055543;28;1133;-75
2023/12/26 01:47:42;;;;;;;;;;;;;;;21.45;25.93;97865.34;5038886;28;1108;-75
2023/12/26 01:50:08;;;;;;;;;;;;;;;21.55;25.65;97859.41;5038636;28;1239;-73
2023/12/26 01:52:35;;;;;;;;;;;;;;;21.80;25.57;97864.31;5055296;28;728;-72
2023/12/26 01:55:01;;;;;;;;;;;;;;;21.59;25.65;97867.78;5030866;28;975;-73
2023/12/26 01:57:27;;;;;;;;;;;;;;;21.91;25.20;97857.53;5018766;28;867;-72
2023/12/26 01:59:53;;;;;;;;;;;;;;;21.99;25.18;97867.44;5018923;28;1277;-72
2023/12/26 02:02:19;;;;;;;;;;;;;;;21.49;25.87;97866.03;4986154;28;1548;-72
2023/12/26 02:04:44;;;;;;;;;;;;;;;21.10;26.48;97882.03;5018754;28;1910;-72
2023/12/26 02:07:10;;;;;;;;;;;;;;;21.19;26.57;97882.22;5002119;28;1263;-72
2023/12/26 02:09:37;;;;;;;;;;;;;;;21.36;26.03;97885.81;5002480;28;1147;-72
2023/12/26 02:12:03;;;;;;;;;;;;;;;21.85;25.58;97889.25;5018473;28;884;-73
2023/12/26 02:14:28;;;;;;;;;;;;;;;21.83;25.33;97894.59;4986137;28;1278;-72
2023/12/26 02:16:54;;;;;;;;;;;;;;;21.78;25.37;97883.81;4986990;28;850;-72
2023/12/26 02:19:20;;;;;;;;;;;;;;;22.03;25.26;97887.94;4998601;28;842;-72
2023/12/26 02:21:46;;;;;;;;;;;;;;;21.79;25.34;97891.06;5015169;28;1249;-75
2023/12/26 02:24:12;;;;;;;;;;;;;;;21.59;25.84;97890.44;5015082;28;2111;-75
2023/12/26 02:26:39;;;;;;;;;;;;;;;21.73;25.56;97892.84;5030199;28;1074;-74
2023/12/26 02:29:06;;;;;;;;;;;;;;;21.56;25.99;97889.31;5039208;28;1118;-75
2023/12/26 02:31:31;;;;;;;;;;;;;;;21.92;25.57;97887.47;5022528;28;824;-75
2023/12/26 02:33:57;;;;;;;;;;;;;;;21.94;25.40;97884.97;5038904;28;814;-75
2023/12/26 02:36:23;;;;;;;;;;;;;;;21.64;25.49;97889.09;5039071;28;1164;-75
2023/12/26 02:38:48;;;;;;;;;;;;;;;21.59;25.75;97893.25;5055899;28;1127;-75
2023/12/26 02:41:14;;;;;;;;;;;;;;;21.12;26.60;97899.34;5021090;28;1127;-75
2023/12/26 02:43:39;;;;;;;;;;;;;;;21.89;25.66;97896.88;5020977;28;1910;-75
2023/12/26 02:46:05;;;;;;;;;;;;;;;21.99;25.21;97887.25;5038058;28;788;-75
2023/12/26 02:48:31;;;;;;;;;;;;;;;21.80;25.66;97898.31;5038072;28;1230;-75
2023/12/26 02:50:56;;;;;;;;;;;;;;;21.87;25.41;97899.38;5021337;28;1163;-75
2023/12/26 02:53:22;;;;;;;;;;;;;;;21.94;25.46;97896.31;5020996;28;1134;-75
2023/12/26 02:55:52;;;;;;;;;;;;;;;21.54;26.10;97890.97;4997929;28;1252;-75
2023/12/26 02:58:18;;;;;;;;;;;;;;;21.46;26.23;97879.06;4998437;28;871;-75
2023/12/26 03:00:44;;;;;;;;;;;;;;;21.51;26.12;97891.88;4998129;28;778;-75
2023/12/26 03:03:09;;;;;;;;;;;;;;;21.82;25.75;97876.00;4981903;28;1910;-75
2023/12/26 03:05:35;;;;;;;;;;;;;;;21.81;25.71;97885.75;4956282;29;1134;-75
2023/12/26 03:08:00;;;;;;;;;;;;;;;21.89;25.68;97882.72;4955868;29;899;-75
2023/12/26 03:10:26;;;;;;;;;;;;;;;21.69;25.99;97880.03;4956203;29;1104;-75
2023/12/26 03:12:51;;;;;;;;;;;;;;;21.50;26.14;97884.63;4941132;29;1204;-75
2023/12/26 03:15:17;;;;;;;;;;;;;;;21.79;25.90;97888.22;4936877;29;1232;-75
2023/12/26 03:17:43;;;;;;;;;;;;;;;21.89;25.67;97885.53;4936474;29;1146;-75
2023/12/26 03:20:10;;;;;;;;;;;;;;;21.79;25.68;97891.06;4921146;29;892;-75
2023/12/26 03:22:36;;;;;;;;;;;;;;;22.01;25.42;97896.88;4936416;29;1903;-75
2023/12/26 03:25:02;;;;;;;;;;;;;;;21.79;25.72;97896.72;4901550;29;1067;-75
2023/12/26 03:27:29;;;;;;;;;;;;;;;21.62;25.91;97902.91;4946981;28;1104;-75
2023/12/26 03:29:55;;;;;;;;;;;;;;;21.64;25.93;97901.22;4957935;28;1177;-75
2023/12/26 03:32:20;;;;;;;;;;;;;;;21.82;25.81;97907.16;4942794;28;1219;-75
2023/12/26 03:34:46;;;;;;;;;;;;;;;22.00;25.83;97911.50;4942760;28;1064;-75
2023/12/26 03:37:12;;;;;;;;;;;;;;;21.94;25.62;97913.31;4972452;28;946;-75
2023/12/26 03:39:37;;;;;;;;;;;;;;;22.02;25.58;97917.50;4997474;28;1213;-75
2023/12/26 03:42:03;;;;;;;;;;;;;;;22.07;25.61;97931.94;4997764;28;756;-75
2023/12/26 03:44:29;;;;;;;;;;;;;;;21.90;25.98;97941.72;5013585;28;1980;-75
2023/12/26 03:46:55;;;;;;;;;;;;;;;21.76;25.84;97940.13;4977507;28;1175;-75
2023/12/26 03:49:21;;;;;;;;;;;;;;;21.75;26.02;97949.03;4994317;28;950;-75
2023/12/26 03:51:47;;;;;;;;;;;;;;;21.76;26.25;97942.94;4962026;28;1311;-75
2023/12/26 03:54:14;;;;;;;;;;;;;;;21.72;26.38;97947.91;4994216;28;1657;-75
2023/12/26 03:56:39;;;;;;;;;;;;;;;21.88;26.09;97949.91;4976652;28;1128;-75
2023/12/26 03:59:06;;;;;;;;;;;;;;;21.98;25.97;97948.00;5013675;28;1176;-75
2023/12/26 04:01:31;;;;;;;;;;;;;;;21.94;26.10;97961.47;5013457;28;1146;-75
2023/12/26 04:03:57;;;;;;;;;;;;;;;21.68;26.47;97969.88;4997216;28;1989;-75
2023/12/26 04:06:23;;;;;;;;;;;;;;;21.54;26.11;97970.25;5013812;28;1101;-75
2023/12/26 04:08:49;;;;;;;;;;;;;;;21.55;26.20;97971.84;4997820;28;779;-75
2023/12/26 04:11:14;;;;;;;;;;;;;;;21.70;26.42;97978.69;5013456;28;906;-75
2023/12/26 04:13:40;;;;;;;;;;;;;;;21.90;26.11;97972.09;4997331;28;1247;-75
2023/12/26 04:16:06;;;;;;;;;;;;;;;21.97;25.98;97975.53;5013777;28;1118;-75
2023/12/26 04:18:32;;;;;;;;;;;;;;;22.07;25.74;97973.63;5013602;28;969;-75
2023/12/26 04:20:58;;;;;;;;;;;;;;;21.61;26.51;97981.41;5013457;28;1081;-75
2023/12/26 04:23:24;;;;;;;;;;;;;;;21.45;26.39;97984.22;5017811;28;1969;-75
2023/12/26 04:25:50;;;;;;;;;;;;;;;21.57;26.35;97989.97;5036565;28;1478;-75
2023/12/26 04:28:15;;;;;;;;;;;;;;;21.84;25.97;97989.66;5036420;28;1122;-75
2023/12/26 04:30:41;;;;;;;;;;;;;;;21.83;25.95;97988.06;5020011;28;1199;-74
2023/12/26 04:33:09;;;;;;;;;;;;;;;21.82;26.14;97994.97;5036318;28;1142;-75
2023/12/26 04:35:35;;;;;;;;;;;;;;;21.77;26.11;97998.34;5035981;28;1337;-75
2023/12/26 04:38:01;;;;;;;;;;;;;;;21.59;26.48;98000.84;5036648;28;869;-75
2023/12/26 04:40:27;;;;;;;;;;;;;;;21.62;26.38;97993.53;5036243;28;1399;-75
2023/12/26 04:42:52;;;;;;;;;;;;;;;21.20;26.85;98007.50;5039743;28;1906;-75
2023/12/26 04:45:18;;;;;;;;;;;;;;;21.66;26.40;98000.69;5019918;28;1335;-75
2023/12/26 04:47:44;;;;;;;;;;;;;;;21.73;26.13;97999.69;5003795;28;1425;-75
2023/12/26 04:50:09;;;;;;;;;;;;;;;21.85;25.97;98007.44;5020018;28;1274;-75
2023/12/26 04:52:35;;;;;;;;;;;;;;;21.90;25.72;97997.59;5036889;28;1389;-75
2023/12/26 04:55:01;;;;;;;;;;;;;;;21.54;26.14;97998.56;5020640;28;1662;-75
2023/12/26 04:57:27;;;;;;;;;;;;;;;21.24;26.90;97992.03;5030061;28;1195;-75
2023/12/26 04:59:53;;;;;;;;;;;;;;;21.78;26.01;97997.09;5020126;28;1013;-75
2023/12/26 05:02:19;;;;;;;;;;;;;;;21.85;26.12;97996.09;5003928;28;1198;-75
2023/12/26 05:04:46;;;;;;;;;;;;;;;21.93;25.76;98003.16;5003677;28;1906;-75
2023/12/26 05:07:12;;;;;;;;;;;;;;;22.03;25.95;98007.75;5003941;28;1179;-75
2023/12/26 05:09:37;;;;;;;;;;;;;;;21.96;25.70;98007.13;5020007;28;1001;-75
2023/12/26 05:12:03;;;;;;;;;;;;;;;22.16;25.60;98004.97;5019911;28;1105;-75
2023/12/26 05:14:29;;;;;;;;;;;;;;;21.64;26.28;98003.16;5036462;28;994;-75
2023/12/26 05:16:55;;;;;;;;;;;;;;;21.69;26.31;98005.44;5020345;28;997;-75
2023/12/26 05:19:20;;;;;;;;;;;;;;;21.55;26.50;98011.47;5003849;28;1018;-75
2023/12/26 05:21:46;;;;;;;;;;;;;;;21.98;26.03;98010.34;5018599;28;1242;-75
2023/12/26 05:24:12;;;;;;;;;;;;;;;22.04;25.74;98014.19;5002844;28;1967;-75
2023/12/26 05:26:40;;;;;;;;;;;;;;;22.12;25.78;98009.94;5011573;28;1560;-74
2023/12/26 05:29:05;;;;;;;;;;;;;;;21.69;26.29;98011.09;5016424;28;1135;-74
2023/12/26 05:31:31;;;;;;;;;;;;;;;21.41;26.77;98014.69;4999951;28;1116;-74
2023/12/26 05:33:58;;;;;;;;;;;;;;;21.78;26.11;98007.63;4999765;28;1140;-74
2023/12/26 05:36:23;;;;;;;;;;;;;;;21.88;26.27;98011.44;5016435;28;1119;-74
2023/12/26 05:38:49;;;;;;;;;;;;;;;21.96;26.29;98012.81;5015962;28;1115;-74
2023/12/26 05:41:14;;;;;;;;;;;;;;;21.86;26.20;98011.84;4999806;28;1167;-74
2023/12/26 05:43:40;;;;;;;;;;;;;;;22.04;26.12;98015.00;4976939;28;1918;-74
2023/12/26 05:46:06;;;;;;;;;;;;;;;21.95;26.13;98011.22;4960868;28;1174;-74
2023/12/26 05:48:33;;;;;;;;;;;;;;;21.29;27.01;98005.63;4960372;28;1249;-74
2023/12/26 05:50:59;;;;;;;;;;;;;;;21.55;26.69;98005.81;4960818;28;1196;-74
2023/12/26 05:53:29;;;;;;;;;;;;;;;21.64;26.57;98013.69;4976334;28;1076;-75
2023/12/26 05:55:55;;;;;;;;;;;;;;;21.87;26.14;98009.84;4976633;28;1298;-74
2023/12/26 05:58:20;;;;;;;;;;;;;;;22.10;25.87;98018.06;4996220;28;1139;-74
2023/12/26 06:00:46;;;;;;;;;;;;;;;22.14;25.79;98015.19;4995389;28;1359;-74
2023/12/26 06:03:12;;;;;;;;;;;;;;;21.77;26.31;98012.50;4999283;28;1911;-74
2023/12/26 06:05:38;;;;;;;;;;;;;;;21.53;26.65;98016.78;5015520;28;1240;-74
2023/12/26 06:08:04;;;;;;;;;;;;;;;21.58;26.53;98016.25;4999179;28;1132;-74
2023/12/26 06:10:29;;;;;;;;;;;;;;;21.69;26.72;98018.81;4995757;28;1230;-74
2023/12/26 06:12:55;;;;;;;;;;;;;;;21.97;26.12;98017.25;5012296;28;1062;-74
2023/12/26 06:15:21;;;;;;;;;;;;;;;22.02;26.13;98022.34;5027611;28;1340;-74
2023/12/26 06:17:47;;;;;;;;;;;;;;;21.98;26.02;98021.66;4998955;28;1155;-74
2023/12/26 06:20:14;;;;;;;;;;;;;;;21.94;26.20;98018.13;4999205;28;1223;-74
2023/12/26 06:22:40;;;;;;;;;;;;;;;21.67;26.74;98019.25;4999189;28;1906;-74
2023/12/26 06:25:05;;;;;;;;;;;;;;;21.65;26.77;98018.88;4998839;28;1264;-75
2023/12/26 06:27:31;;;;;;;;;;;;;;;21.89;26.55;98030.78;5015078;28;1175;-75
2023/12/26 06:29:57;;;;;;;;;;;;;;;21.82;26.25;98025.34;4995074;28;1218;-75
2023/12/26 06:32:22;;;;;;;;;;;;;;;21.91;26.62;98021.84;4995375;28;1161;-75
2023/12/26 06:34:48;;;;;;;;;;;;;;;22.22;26.00;98025.84;5011776;28;1448;-74
2023/12/26 06:37:14;;;;;;;;;;;;;;;21.81;26.42;98018.06;5011790;28;1296;-75
2023/12/26 06:39:40;;;;;;;;;;;;;;;21.64;26.76;98022.16;5034593;28;1127;-75
2023/12/26 06:42:05;;;;;;;;;;;;;;;21.71;26.53;98019.97;5018298;28;1048;-75
2023/12/26 06:44:31;;;;;;;;;;;;;;;21.73;26.56;98017.47;5001899;28;1915;-75
2023/12/26 06:46:57;;;;;;;;;;;;;;;21.78;26.65;98019.75;5018076;28;1123;-75
2023/12/26 06:49:24;;;;;;;;;;;;;;;22.07;26.38;98024.63;4985986;28;1128;-75
2023/12/26 06:51:49;;;;;;;;;;;;;;;21.85;26.52;98024.44;5018085;28;1040;-75
2023/12/26 06:54:17;;;;;;;;;;;;;;;21.63;26.92;98029.09;5018410;28;1095;-75
2023/12/26 06:56:43;;;;;;;;;;;;;;;21.63;26.48;98029.88;5018041;28;1229;-75
2023/12/26 06:59:08;;;;;;;;;;;;;;;21.77;26.80;98028.72;5017989;28;1132;-73
2023/12/26 07:01:34;;;;;;;;;;;;;;;21.91;26.40;98028.31;5002862;28;1113;-73
2023/12/26 07:04:00;;;;;;;;;;;;;;;22.06;26.19;98029.50;5014227;28;1973;-73
2023/12/26 07:06:27;;;;;;;;;;;;;;;21.87;26.72;98032.50;4998190;28;1128;-73
2023/12/26 07:08:52;;;;;;;;;;;;;;;21.77;26.71;98029.50;5014559;28;1127;-74
2023/12/26 07:11:18;;;;;;;;;;;;;;;21.78;26.63;98031.09;5014771;28;961;-73
2023/12/26 07:13:44;;;;;;;;;;;;;;;21.65;26.75;98044.38;5014316;28;958;-74
2023/12/26 07:16:09;;;;;;;;;;;;;;;21.65;27.09;98046.41;5014761;28;942;-73
2023/12/26 07:18:35;;;;;;;;;;;;;;;21.99;26.49;98066.53;5014553;28;1327;-74
2023/12/26 07:21:01;;;;;;;;;;;;;;;22.02;26.15;98062.00;5014267;28;1133;-74
2023/12/26 07:23:26;;;;;;;;;;;;;;;21.90;26.54;98065.59;5033152;28;1969;-74
2023/12/26 07:25:52;;;;;;;;;;;;;;;21.97;26.51;98059.75;5038534;28;1337;-73
2023/12/26 07:28:18;;;;;;;;;;;;;;;21.71;26.67;98061.63;5038508;28;1260;-74
2023/12/26 07:30:44;;;;;;;;;;;;;;;21.68;26.88;98059.69;5022071;28;973;-74
2023/12/26 07:33:09;;;;;;;;;;;;;;;21.56;27.21;98062.00;5056353;28;1069;-73
2023/12/26 07:35:35;;;;;;;;;;;;;;;21.79;26.92;98061.00;5038177;28;991;-73
2023/12/26 07:38:01;;;;;;;;;;;;;;;22.15;26.27;98074.22;5038254;28;1242;-73
2023/12/26 07:40:27;;;;;;;;;;;;;;;21.69;26.60;98076.22;5055829;28;944;-73
2023/12/26 07:42:52;;;;;;;;;;;;;;;21.63;26.76;98075.19;5038359;28;1973;-73
2023/12/26 07:45:23;;;;;;;;;;;;;;;21.81;26.73;98081.19;5013715;28;984;-73
2023/12/26 07:47:48;;;;;;;;;;;;;;;21.75;26.85;98077.28;4982312;28;1017;-73
2023/12/26 07:50:14;;;;;;;;;;;;;;;21.96;26.58;98075.13;4997770;28;963;-73
2023/12/26 07:52:39;;;;;;;;;;;;;;;21.88;26.72;98082.25;4997292;28;1007;-73
2023/12/26 07:55:05;;;;;;;;;;;;;;;21.94;26.50;98083.28;4997821;28;1011;-73
2023/12/26 07:57:31;;;;;;;;;;;;;;;21.87;26.72;98078.63;4997989;28;950;-73
2023/12/26 07:59:56;;;;;;;;;;;;;;;21.85;26.53;98078.25;4997668;28;1108;-73
2023/12/26 08:02:22;;;;;;;;;;;;;;;21.95;26.51;98079.22;4997536;28;961;-73
2023/12/26 08:04:48;;;;;;;;;;;;;;;21.90;26.64;98082.56;5013954;28;1918;-73
2023/12/26 08:07:13;;;;;;;;;;;;;;;21.90;26.46;98082.56;4981352;28;914;-73
2023/12/26 08:09:39;;;;;;;;;;;;;;;21.92;26.54;98080.13;5014253;28;1061;-74
2023/12/26 08:12:05;;;;;;;;;;;;;;;21.64;27.02;98085.25;4997532;28;1193;-73
2023/12/26 08:14:30;;;;;;;;;;;;;;;21.49;27.08;98079.16;5013597;28;1021;-73
2023/12/26 08:16:56;;;;;;;;;;;;;;;21.35;27.45;98082.34;4999265;28;907;-73
2023/12/26 08:19:21;;;;;;;;;;;;;;;21.87;26.58;98083.50;4978524;28;1238;-73
2023/12/26 08:21:47;;;;;;;;;;;;;;;22.14;26.16;98092.47;4962425;28;1000;-73
2023/12/26 08:24:13;;;;;;;;;;;;;;;21.94;26.33;98084.06;4939809;29;1918;-74
2023/12/26 08:26:38;;;;;;;;;;;;;;;21.82;26.71;98088.44;4923953;29;974;-73
2023/12/26 08:29:04;;;;;;;;;;;;;;;21.10;27.83;98088.56;4923984;29;1748;-74
2023/12/26 08:31:30;;;;;;;;;;;;;;;21.92;26.70;98094.28;4928369;29;1680;-74
2023/12/26 08:33:56;;;;;;;;;;;;;;;22.06;26.43;98091.03;4948284;28;1526;-74
2023/12/26 08:36:21;;;;;;;;;;;;;;;21.84;26.47;98091.63;4934194;29;1463;-74
2023/12/26 08:38:47;;;;;;;;;;;;;;;21.89;26.38;98093.13;4917390;29;1539;-74
2023/12/26 08:41:13;;;;;;;;;;;;;;;21.48;27.21;98090.94;4948488;28;1676;-74
2023/12/26 08:43:38;;;;;;;;;;;;;;;21.66;26.79;98085.63;4949871;28;1986;-74
2023/12/26 08:46:04;;;;;;;;;;;;;;;21.72;27.05;98091.56;4934003;28;1492;-74
2023/12/26 08:48:30;;;;;;;;;;;;;;;21.97;26.46;98082.41;4946032;28;1516;-74
2023/12/26 08:50:55;;;;;;;;;;;;;;;21.96;26.42;98086.47;4980997;28;1494;-74
2023/12/26 08:53:21;;;;;;;;;;;;;;;22.05;26.54;98089.47;4996983;28;1764;-74
2023/12/26 08:55:47;;;;;;;;;;;;;;;21.90;26.75;98088.25;4997289;28;1569;-75
2023/12/26 08:58:13;;;;;;;;;;;;;;;21.84;26.77;98085.16;4980947;28;1671;-74
2023/12/26 09:00:39;;;;;;;;;;;;;;;21.69;27.05;98096.06;4984469;28;1726;-74
2023/12/26 09:03:07;;;;;;;;;;;;;;;21.80;26.87;98079.56;5034673;28;1913;-74
2023/12/26 09:05:33;;;;;;;;;;;;;;;21.92;26.41;98068.78;5059046;28;1003;-74
2023/12/26 09:07:58;;;;;;;;;;;;;;;22.07;26.65;98069.97;5058964;28;881;-74
2023/12/26 09:10:24;;;;;;;;;;;;;;;21.87;26.49;98069.31;5058741;28;909;-74
2023/12/26 09:12:50;;;;;;;;;;;;;;;21.79;26.79;98072.31;5024277;28;1273;-74
2023/12/26 09:15:15;;;;;;;;;;;;;;;21.54;27.11;98080.66;5008041;28;931;-74
2023/12/26 09:17:42;;;;;;;;;;;;;;;21.72;27.08;98071.72;5039783;28;972;-74
2023/12/26 09:20:09;;;;;;;;;;;;;;;21.97;26.75;98071.06;5040537;28;928;-74
2023/12/26 09:22:35;;;;;;;;;;;;;;;21.76;26.80;98067.56;5040864;28;1160;-74
2023/12/26 09:25:01;;;;;;;;;;;;;;;21.81;26.96;98067.03;5058238;28;1989;-74
2023/12/26 09:27:26;;;;;;;;;;;;;;;21.71;26.75;98062.44;5057872;28;914;-74
2023/12/26 09:29:52;;;;;;;;;;;;;;;21.83;26.80;98070.19;5040797;28;1029;-74
2023/12/26 09:32:18;;;;;;;;;;;;;;;21.75;27.11;98065.94;5040466;28;1105;-74
2023/12/26 09:34:43;;;;;;;;;;;;;;;21.95;26.71;98062.22;5024317;28;1154;-74
2023/12/26 09:37:09;;;;;;;;;;;;;;;21.85;26.81;98059.22;5035686;28;989;-74
2023/12/26 09:39:34;;;;;;;;;;;;;;;21.89;26.80;98064.00;5035876;28;910;-74
2023/12/26 09:42:00;;;;;;;;;;;;;;;21.66;27.15;98054.47;5019451;28;1104;-74
2023/12/26 09:44:26;;;;;;;;;;;;;;;21.68;27.07;98052.00;5019353;28;1995;-74
2023/12/26 09:46:52;;;;;;;;;;;;;;;21.92;26.63;98040.47;5019178;28;1115;-74
2023/12/26 09:49:18;;;;;;;;;;;;;;;22.17;26.49;98049.06;5019330;28;1235;-74
2023/12/26 09:51:44;;;;;;;;;;;;;;;21.86;26.67;98043.00;4999475;28;1562;-74
2023/12/26 09:54:10;;;;;;;;;;;;;;;21.75;27.01;98037.63;5018936;28;1526;-74
2023/12/26 09:56:35;;;;;;;;;;;;;;;21.67;27.04;98038.28;5004134;28;1560;-74
2023/12/26 09:59:01;;;;;;;;;;;;;;;21.68;26.98;98037.84;4999927;28;956;-74
2023/12/26 10:01:28;;;;;;;;;;;;;;;21.76;27.13;98027.91;5000054;28;1004;-74
2023/12/26 10:03:56;;;;;;;;;;;;;;;21.82;27.08;98031.78;4999239;28;1981;-74
2023/12/26 10:06:22;;;;;;;;;;;;;;;22.01;26.48;98024.38;5019162;28;989;-74
2023/12/26 10:08:48;;;;;;;;;;;;;;;21.93;26.58;98022.22;5035128;28;1579;-74
2023/12/26 10:11:13;;;;;;;;;;;;;;;21.51;27.19;98017.25;5046321;28;1521;-74
2023/12/26 10:13:49;;;;;;;;;;;;;;;21.70;27.26;98020.38;5063221;28;1552;-74
2023/12/26 10:16:15;;;;;;;;;;;;;;;21.90;26.95;98018.22;5064848;28;1640;-74
2023/12/26 10:18:41;;;;;;;;;;;;;;;22.11;26.47;98019.69;5062261;28;2103;-74
2023/12/26 10:21:07;;;;;;;;;;;;;;;21.87;26.96;98015.50;5049879;28;1570;-74
2023/12/26 10:23:33;;;;;;;;;;;;;;;21.88;26.87;98011.44;5047352;28;1910;-74
2023/12/26 10:25:58;;;;;;;;;;;;;;;21.78;26.95;98014.09;5052724;28;1458;-75
2023/12/26 10:28:24;;;;;;;;;;;;;;;21.83;26.87;98007.88;5057578;28;1568;-75
2023/12/26 10:30:50;;;;;;;;;;;;;;;21.96;26.75;98016.41;5063963;28;1517;-74
2023/12/26 10:33:23;;;;;;;;;;;;;;;21.90;26.88;98015.38;5047417;28;1571;-74
2023/12/26 10:36:00;;;;;;;;;;;;;;;21.77;26.85;98004.00;5064139;28;1605;-74
2023/12/26 10:38:25;;;;;;;;;;;;;;;21.69;27.28;97999.78;5037058;28;1442;-74
2023/12/26 10:40:51;;;;;;;;;;;;;;;21.87;27.03;97993.63;5007967;28;1474;-74
2023/12/26 10:43:16;;;;;;;;;;;;;;;22.17;26.32;97992.38;4994932;28;1981;-74
2023/12/26 10:45:42;;;;;;;;;;;;;;;21.74;27.01;97995.59;4979327;28;900;-74
2023/12/26 10:48:08;;;;;;;;;;;;;;;21.89;26.73;97996.81;4963207;28;1257;-74
2023/12/26 10:50:33;;;;;;;;;;;;;;;21.72;27.09;97990.41;4979360;28;960;-74
2023/12/26 10:53:25;;;;;;;;;;;;;;;21.94;26.84;97998.28;4979497;28;962;-74
2023/12/26 10:55:51;;;;;;;;;;;;;;;21.79;27.03;97986.56;4975882;28;1090;-74
2023/12/26 10:58:23;;;;;;;;;;;;;;;21.91;27.14;97988.63;4959763;28;964;-74
2023/12/26 11:00:50;;;;;;;;;;;;;;;22.18;26.38;97985.50;4959915;28;952;-74
2023/12/26 13:51:37;;;;;;;;;;;;;;;21.94;27.23;97919.78;5057942;28;883;-74
2023/12/26 13:54:21;;;;;;;;;;;;;;;22.15;26.93;97918.38;5058039;28;975;-74
2023/12/26 13:57:06;;;;;;;;;;;;;;;21.65;27.57;97916.94;5057950;28;961;-74
2023/12/26 13:59:50;;;;;;;;;;;;;;;21.42;27.90;97911.53;5040198;28;996;-74
2023/12/26 14:02:35;;;;;;;;;;;;;;;21.71;27.39;97912.34;5039902;28;992;-74
2023/12/26 14:05:19;;;;;;;;;;;;;;;21.73;27.91;97914.72;5040229;28;1919;-74
2023/12/26 14:08:05;;;;;;;;;;;;;;;21.64;27.92;97901.22;5057499;28;887;-74
2023/12/26 14:10:49;;;;;;;;;;;;;;;21.49;28.13;97905.69;5057512;28;971;-74
2023/12/26 14:13:33;;;;;;;;;;;;;;;21.37;28.26;97904.38;5057544;28;817;-74
2023/12/26 14:16:19;;;;;;;;;;;;;;;21.63;28.12;97910.94;5015531;28;1256;-74
2023/12/26 14:19:03;;;;;;;;;;;;;;;21.69;27.89;97909.16;5015549;28;1009;-75
2023/12/26 14:21:46;;;;;;;;;;;;;;;21.95;27.34;97903.56;5031788;28;1068;-74
2023/12/26 14:24:30;;;;;;;;;;;;;;;22.04;26.99;97900.88;5015230;28;1918;-74
2023/12/26 14:27:14;;;;;;;;;;;;;;;21.66;27.55;97904.41;5015658;28;921;-74
2023/12/26 14:29:58;;;;;;;;;;;;;;;21.31;28.06;97904.13;5015054;28;1022;-74
2023/12/26 14:32:42;;;;;;;;;;;;;;;21.92;27.29;97901.66;5015360;28;1009;-74
2023/12/26 14:35:26;;;;;;;;;;;;;;;22.05;27.19;97897.56;4995507;28;1551;-74
2023/12/26 14:38:10;;;;;;;;;;;;;;;21.90;27.39;97901.28;4995391;28;989;-74
2023/12/26 14:40:57;;;;;;;;;;;;;;;21.43;28.18;97901.81;4995449;28;949;-74
2023/12/26 14:43:42;;;;;;;;;;;;;;;21.35;28.39;97894.75;4995364;28;1899;-74
2023/12/26 14:46:26;;;;;;;;;;;;;;;21.82;27.57;97884.50;5001048;28;993;-74
2023/12/26 14:49:10;;;;;;;;;;;;;;;22.13;27.23;97891.75;5036908;28;987;-74
2023/12/26 14:51:55;;;;;;;;;;;;;;;21.55;27.95;97893.38;5036841;28;974;-74
2023/12/26 14:54:39;;;;;;;;;;;;;;;21.46;28.17;97884.72;5037385;28;948;-74
2023/12/26 14:57:23;;;;;;;;;;;;;;;21.65;27.92;97890.66;5035639;28;1562;-74
2023/12/26 15:00:07;;;;;;;;;;;;;;;22.01;27.54;97887.59;5035279;28;949;-74
2023/12/26 15:02:33;;;;;;;;;;;;;;;21.84;27.51;97889.72;5036586;28;1182;-74
2023/12/26 15:04:59;;;;;;;;;;;;;;;21.63;27.77;97888.28;5031343;28;1910;-74
2023/12/26 15:07:25;;;;;;;;;;;;;;;21.35;28.27;97883.41;5014184;28;1517;-74
2023/12/26 15:09:50;;;;;;;;;;;;;;;21.47;28.01;97879.88;5056276;28;1587;-74
2023/12/26 15:12:16;;;;;;;;;;;;;;;21.69;27.83;97888.53;5007139;28;1482;-74
2023/12/26 15:14:42;;;;;;;;;;;;;;;21.97;27.59;97884.88;5024797;28;1655;-74
2023/12/26 15:17:07;;;;;;;;;;;;;;;22.20;27.23;97880.97;5023213;28;1597;-74
2023/12/26 15:19:34;;;;;;;;;;;;;;;21.70;27.61;97876.75;5014103;28;1584;-74
2023/12/26 15:22:00;;;;;;;;;;;;;;;21.91;27.47;97885.88;4994228;28;1602;-74
2023/12/26 15:24:26;;;;;;;;;;;;;;;21.64;27.81;97884.22;5010932;28;1988;-75
2023/12/26 15:26:51;;;;;;;;;;;;;;;21.68;27.97;97890.59;5010982;28;997;-74
2023/12/26 15:29:17;;;;;;;;;;;;;;;21.71;27.79;97878.38;5011311;28;1211;-74
2023/12/26 15:31:45;;;;;;;;;;;;;;;22.04;27.60;97881.03;4977880;28;1670;-74
2023/12/26 15:34:11;;;;;;;;;;;;;;;22.09;27.42;97874.81;4934846;28;1509;-74
2023/12/26 15:36:36;;;;;;;;;;;;;;;21.74;27.71;97877.44;4975160;28;1024;-74
2023/12/26 15:39:02;;;;;;;;;;;;;;;21.63;27.90;97871.31;4991141;28;932;-74
2023/12/26 15:41:28;;;;;;;;;;;;;;;21.36;28.41;97868.06;4974969;28;956;-74
2023/12/26 15:43:53;;;;;;;;;;;;;;;21.91;27.86;97868.88;4960188;28;1982;-74
2023/12/26 15:46:20;;;;;;;;;;;;;;;22.12;27.17;97873.91;4955847;29;1039;-75
2023/12/26 15:48:46;;;;;;;;;;;;;;;21.89;27.83;97871.38;4971671;28;1024;-74